Time;durP1;ratioP1;P1;durP2;ratioP2;P2;SDS_P1;SDS_P2;PMS_P1;PMS_P2;Temp;Humidity;BMP_temperature;BMP_pressure;BME280_temperature;BME280_humidity;BME280_pressure;Samples;Min_cycle;Max_cycle;Signal;HPM_P1;HPM_P2
2022/09/01 00:00:56;;;;;;;17.50;8.68;;;;;;;22.83;69.64;100117.50;5053137;28;20053;-72
2022/09/01 00:03:22;;;;;;;14.23;7.78;;;;;;;22.62;69.76;100119.63;5052930;28;20086;-75
2022/09/01 00:05:53;;;;;;;12.45;7.85;;;;;;;22.28;70.44;100088.66;5053667;28;20051;-75
2022/09/01 00:08:21;;;;;;;12.82;7.55;;;;;;;22.40;70.53;100106.00;5050286;28;20465;-75
2022/09/01 00:10:46;;;;;;;14.02;7.95;;;;;;;22.45;70.12;100092.75;5053045;28;20147;-76
2022/09/01 00:13:12;;;;;;;16.35;7.80;;;;;;;22.53;69.82;100111.91;5053175;28;20167;-73
2022/09/01 00:15:38;;;;;;;12.25;7.88;;;;;;;22.21;69.74;100062.50;5051674;28;20017;-74
2022/09/01 00:18:03;;;;;;;15.00;7.40;;;;;;;22.32;69.61;100105.25;5053062;28;20064;-72
2022/09/01 00:20:29;;;;;;;16.98;7.47;;;;;;;22.28;70.10;100112.31;5051682;28;20024;-74
2022/09/01 00:22:54;;;;;;;11.85;7.25;;;;;;;22.20;70.22;100105.44;5052662;28;20033;-79
2022/09/01 00:25:23;;;;;;;14.73;7.72;;;;;;;22.29;70.44;100097.38;5052686;28;20028;-76
2022/09/01 00:27:50;;;;;;;16.57;7.43;;;;;;;22.20;70.71;100115.97;5052841;28;20035;-76
2022/09/01 00:30:20;;;;;;;16.23;7.63;;;;;;;22.20;71.10;100106.31;5052609;28;20475;-74
2022/09/01 00:32:46;;;;;;;14.60;7.32;;;;;;;22.16;71.19;100109.00;5052745;28;20028;-74
2022/09/01 00:35:13;;;;;;;15.55;8.13;;;;;;;22.31;71.32;100116.66;5050969;28;20032;-75
2022/09/01 00:37:39;;;;;;;14.20;7.40;;;;;;;22.30;71.05;100107.88;5052308;28;20098;-75
2022/09/01 00:40:05;;;;;;;12.00;7.65;;;;;;;22.45;70.53;100100.66;5034765;28;20479;-75
2022/09/01 00:42:31;;;;;;;17.02;7.72;;;;;;;22.73;69.51;100116.81;5052660;28;20016;-76
2022/09/01 00:44:56;;;;;;;14.50;7.70;;;;;;;22.90;68.25;100108.59;5052589;28;20094;-74
2022/09/01 00:47:23;;;;;;;14.63;7.40;;;;;;;23.00;67.91;100098.72;5052350;28;20033;-75
2022/09/01 00:49:50;;;;;;;11.63;7.97;;;;;;;22.74;67.89;100071.19;5050766;28;20036;-75
2022/09/01 00:52:24;;;;;;;12.88;7.25;;;;;;;22.88;67.98;100098.97;5052230;28;20033;-75
2022/09/01 00:54:56;;;;;;;14.43;7.65;;;;;;;22.77;68.06;100097.41;5052142;28;20029;-75
2022/09/01 00:57:23;;;;;;;12.73;7.40;;;;;;;22.67;68.88;100098.50;5052054;28;20169;-75
2022/09/01 01:00:14;;;;;;;15.32;7.22;;;;;;;22.63;69.12;100099.47;5052150;28;20044;-75
2022/09/01 01:02:40;;;;;;;12.20;7.43;;;;;;;22.64;69.11;100098.53;5052089;28;20075;-74
2022/09/01 01:05:07;;;;;;;16.50;7.35;;;;;;;22.61;68.83;100095.97;5051987;28;20016;-76
2022/09/01 01:07:37;;;;;;;13.10;7.25;;;;;;;22.69;69.22;100107.25;5052095;28;20483;-73
2022/09/01 01:10:06;;;;;;;13.18;7.53;;;;;;;22.62;69.04;100102.97;5051369;28;20110;-74
2022/09/01 01:12:32;;;;;;;12.20;7.63;;;;;;;22.68;69.19;100105.50;5051647;28;20021;-74
2022/09/01 01:14:58;;;;;;;13.50;6.60;;;;;;;22.70;64.76;100087.91;5050575;28;20072;-72
2022/09/01 01:17:24;;;;;;;13.05;6.78;;;;;;;22.53;62.90;100067.19;5051493;28;20460;-76
2022/09/01 01:23:01;;;;;;;17.08;7.97;;;;;;;22.69;65.25;100083.56;5051701;28;20079;-73
2022/09/01 01:25:34;;;;;;;15.98;7.88;;;;;;;22.75;65.24;100093.97;5049768;28;20487;-75
2022/09/01 01:28:09;;;;;;;14.52;7.38;;;;;;;22.80;64.33;100082.47;5051447;28;20029;-76
2022/09/01 01:30:35;;;;;;;15.60;8.65;;;;;;;22.84;64.43;100078.88;5051093;28;20384;-75
2022/09/01 01:33:03;;;;;;;15.75;8.43;;;;;;;22.73;64.68;100065.91;5051196;28;20029;-74
2022/09/01 01:35:30;;;;;;;14.27;7.90;;;;;;;22.57;65.21;100039.94;5051343;28;20032;-74
2022/09/01 01:37:56;;;;;;;11.23;7.75;;;;;;;22.87;65.92;100073.56;5050641;28;20107;-74
2022/09/01 01:40:22;;;;;;;11.90;8.23;;;;;;;22.75;65.78;100048.34;5051460;28;20025;-74
2022/09/01 01:42:51;;;;;;;16.77;8.00;;;;;;;22.48;68.56;100078.69;5050978;28;20025;-75
2022/09/01 01:45:20;;;;;;;15.32;8.80;;;;;;;21.76;70.92;100027.31;5051014;28;20033;-73
2022/09/01 01:47:55;;;;;;;16.63;8.55;;;;;;;21.89;71.34;100071.78;5050891;28;20044;-76
2022/09/01 01:50:33;;;;;;;15.40;8.32;;;;;;;21.94;70.22;100067.31;5066209;28;20501;-73
2022/09/01 01:53:00;;;;;;;14.27;8.43;;;;;;;21.91;70.29;100062.97;5051117;28;20098;-71
2022/09/01 01:55:27;;;;;;;13.52;8.52;;;;;;;21.98;70.50;100074.25;5051038;28;20029;-73
2022/09/01 01:57:55;;;;;;;12.90;8.13;;;;;;;21.76;71.20;100068.50;5050743;28;20036;-71
2022/09/01 02:00:24;;;;;;;13.00;8.05;;;;;;;21.42;73.13;100064.56;5050909;28;20025;-74
2022/09/01 02:02:53;;;;;;;17.10;8.80;;;;;;;21.50;73.69;100073.19;5062991;28;20406;-74
2022/09/01 02:05:30;;;;;;;14.23;9.05;;;;;;;21.56;73.83;100076.66;5051828;28;20047;-75
2022/09/01 02:08:04;;;;;;;15.02;9.48;;;;;;;21.61;73.49;100080.09;5050899;28;20102;-76
2022/09/01 02:10:37;;;;;;;13.15;9.27;;;;;;;21.47;74.21;100078.50;5050996;28;20083;-73
2022/09/01 02:13:06;;;;;;;16.40;9.57;;;;;;;21.25;75.56;100067.44;5050587;28;20483;-76
2022/09/01 02:15:37;;;;;;;15.27;9.50;;;;;;;21.42;75.56;100072.44;5050581;28;20388;-77
2022/09/01 02:18:04;;;;;;;18.50;10.02;;;;;;;21.58;75.96;100075.75;5050616;28;20075;-75
2022/09/01 02:20:31;;;;;;;16.30;9.88;;;;;;;21.71;75.07;100072.91;5050434;28;20085;-74
2022/09/01 02:23:01;;;;;;;13.48;10.40;;;;;;;21.68;75.10;100034.44;5050554;28;20032;-77
2022/09/01 02:25:27;;;;;;;15.45;9.27;;;;;;;21.95;73.06;100066.44;5050293;28;20028;-74
2022/09/01 02:27:54;;;;;;;13.40;9.88;;;;;;;22.05;71.40;100054.84;5049080;28;20021;-77
2022/09/01 02:30:23;;;;;;;14.23;9.82;;;;;;;22.18;70.10;100058.16;5050176;28;20037;-77
2022/09/01 02:32:49;;;;;;;15.48;10.00;;;;;;;22.14;72.00;100057.34;5065611;28;20048;-75
2022/09/01 02:35:15;;;;;;;18.70;10.35;;;;;;;22.09;71.77;100061.81;5049678;28;20033;-77
2022/09/01 02:37:42;;;;;;;14.82;9.95;;;;;;;21.90;72.87;100061.25;5070428;28;20090;-74
2022/09/01 02:40:11;;;;;;;13.85;9.32;;;;;;;22.01;72.78;100063.69;5070674;28;20024;-71
2022/09/01 02:42:39;;;;;;;17.88;9.50;;;;;;;21.97;71.49;100067.28;5070330;28;20119;-75
2022/09/01 02:45:14;;;;;;;19.90;9.75;;;;;;;22.01;71.17;100063.69;5070238;28;20035;-75
2022/09/01 02:47:47;;;;;;;15.48;9.73;;;;;;;22.04;70.30;100062.78;5070498;28;20032;-77
2022/09/01 02:50:15;;;;;;;13.82;9.65;;;;;;;22.12;69.43;100061.75;5070520;28;20437;-78
2022/09/01 02:52:42;;;;;;;15.38;9.15;;;;;;;22.00;69.33;100050.59;5070440;28;20032;-76
2022/09/01 02:55:08;;;;;;;15.07;9.40;;;;;;;21.72;70.08;100032.63;5067755;28;20028;-75
2022/09/01 02:57:34;;;;;;;14.55;9.50;;;;;;;21.94;71.13;100070.81;5046901;28;20415;-72
2022/09/01 02:59:59;;;;;;;13.77;9.27;;;;;;;21.81;71.89;100071.91;5050479;28;20471;-73
2022/09/01 03:02:27;;;;;;;15.32;10.07;;;;;;;21.87;72.89;100078.81;5046975;28;20040;-74
2022/09/01 03:04:54;;;;;;;12.82;9.48;;;;;;;21.85;74.01;100076.22;5049048;28;20107;-73
2022/09/01 03:07:25;;;;;;;16.73;10.10;;;;;;;21.74;73.27;100063.25;5049956;28;20127;-73
2022/09/01 03:09:51;;;;;;;14.50;10.18;;;;;;;21.80;76.34;100073.66;5047668;28;20072;-70
2022/09/01 03:12:18;;;;;;;13.73;10.18;;;;;;;21.88;74.94;100078.81;5046385;28;20491;-73
2022/09/01 03:14:44;;;;;;;15.98;10.20;;;;;;;21.80;74.75;100081.53;5046627;28;20037;-72
2022/09/01 03:17:10;;;;;;;14.02;9.80;;;;;;;21.57;75.40;100049.50;5047324;28;20031;-73
2022/09/01 03:19:40;;;;;;;14.02;9.85;;;;;;;21.81;74.74;100080.66;5031091;28;20392;-73
2022/09/01 03:22:06;;;;;;;13.55;9.85;;;;;;;21.85;74.91;100078.00;5049426;28;20020;-72
2022/09/01 03:24:31;;;;;;;13.13;9.55;;;;;;;21.65;75.97;100084.41;5049864;28;20505;-76
2022/09/01 03:26:57;;;;;;;18.80;10.55;;;;;;;21.15;78.73;100098.19;5049853;28;20029;-73
2022/09/01 03:29:22;;;;;;;20.65;10.93;;;;;;;20.52;81.32;100052.53;5049697;28;20548;-73
2022/09/01 03:31:48;;;;;;;17.77;11.05;;;;;;;20.40;83.68;100086.75;5048899;28;20483;-73
2022/09/01 03:34:17;;;;;;;16.48;10.60;;;;;;;20.36;83.66;100085.03;5049459;28;20418;-78
2022/09/01 03:36:48;;;;;;;21.38;10.52;;;;;;;20.51;83.20;100087.50;5060217;28;20090;-73
2022/09/01 03:39:16;;;;;;;20.95;10.50;;;;;;;20.58;82.66;100072.56;5032643;28;20090;-73
2022/09/01 03:41:43;;;;;;;17.30;10.38;;;;;;;20.85;80.83;100089.78;5069400;28;20032;-73
2022/09/01 03:44:10;;;;;;;17.33;10.27;;;;;;;20.93;79.35;100086.22;5068706;28;20020;-73
2022/09/01 03:46:36;;;;;;;15.13;10.23;;;;;;;20.99;78.21;100092.25;5068882;28;20036;-72
2022/09/01 03:49:05;;;;;;;17.10;9.40;;;;;;;20.75;77.45;100064.56;5069002;28;20086;-70
2022/09/01 03:51:31;;;;;;;19.50;10.15;;;;;;;21.05;75.71;100100.94;5069010;28;20468;-74
2022/09/01 03:53:58;;;;;;;17.55;9.13;;;;;;;21.17;75.52;100096.41;5069132;28;20112;-72
2022/09/01 03:56:26;;;;;;;14.48;10.30;;;;;;;20.90;77.56;100096.72;5068506;28;20724;-75
2022/09/01 03:58:53;;;;;;;19.85;9.90;;;;;;;20.46;79.92;100102.44;5072782;28;20025;-71
2022/09/01 04:01:19;;;;;;;21.67;11.45;;;;;;;20.38;80.94;100096.38;5072229;28;20035;-74
2022/09/01 04:03:46;;;;;;;14.25;9.73;;;;;;;20.63;80.49;100106.63;5071525;28;20021;-75
2022/09/01 04:06:12;;;;;;;15.40;9.98;;;;;;;20.73;76.60;100107.44;5072626;28;20075;-73
2022/09/01 04:08:38;;;;;;;14.73;9.23;;;;;;;20.84;75.33;100102.94;5072338;28;20067;-77
2022/09/01 04:11:12;;;;;;;15.93;9.32;;;;;;;20.90;75.56;100095.00;5071378;28;20033;-77
2022/09/01 04:13:40;;;;;;;23.15;10.80;;;;;;;21.03;75.53;100092.22;5054375;28;20434;-74
2022/09/01 04:18:03;;;;;;;24.48;10.18;;;;;;;21.10;76.23;100099.13;5052106;28;20060;-76
2022/09/01 04:18:55;;;;;;;18.48;10.90;;;;;;;20.76;81.03;100110.91;5052823;28;20072;-73
2022/09/01 04:21:20;;;;;;;19.33;11.35;;;;;;;20.45;82.96;100108.53;5052536;28;20053;-72
2022/09/01 04:23:47;;;;;;;19.85;12.30;;;;;;;20.32;84.13;100115.63;5052138;28;20020;-73
2022/09/01 04:26:19;;;;;;;21.95;11.48;;;;;;;20.20;85.15;100114.00;5053355;28;20025;-72
2022/09/01 04:28:48;;;;;;;14.30;11.32;;;;;;;20.33;84.62;100114.75;5052994;28;20029;-74
2022/09/01 04:31:18;;;;;;;18.52;11.80;;;;;;;20.46;83.84;100120.78;5053015;28;20036;-72
2022/09/01 04:33:47;;;;;;;22.00;12.45;;;;;;;20.59;82.61;100118.03;5053145;28;20033;-78
2022/09/01 04:36:21;;;;;;;22.17;11.93;;;;;;;20.69;82.35;100114.44;5050628;28;20025;-76
2022/09/01 04:38:48;;;;;;;18.88;11.98;;;;;;;20.72;81.83;100109.16;5043315;28;20033;-79
2022/09/01 04:41:16;;;;;;;16.50;12.68;;;;;;;20.78;81.67;100103.00;5037704;28;20109;-74
2022/09/01 04:43:44;;;;;;;17.25;12.55;;;;;;;20.82;81.78;100125.69;5047160;28;20087;-76
2022/09/01 04:46:11;;;;;;;16.65;12.00;;;;;;;20.58;82.42;100127.63;5050964;28;20053;-72
2022/09/01 04:48:41;;;;;;;20.50;12.50;;;;;;;20.67;82.29;100138.06;5052201;28;20036;-76
2022/09/01 04:51:26;;;;;;;15.20;12.00;;;;;;;20.52;82.27;100107.59;5027521;28;20099;-76
2022/09/01 04:53:56;;;;;;;;;;;;;;;20.70;81.96;100129.28;5030327;28;20034;-71
2022/09/01 04:56:22;;;;;;;17.42;12.60;;;;;;;20.70;82.66;100131.91;5027600;28;19913;-71
2022/09/01 04:58:49;;;;;;;16.17;12.68;;;;;;;20.80;82.63;100127.47;5029917;28;20074;-75
2022/09/01 05:01:20;;;;;;;16.85;13.50;;;;;;;20.91;82.06;100130.84;5029819;28;20029;-72
2022/09/01 05:03:55;;;;;;;17.63;13.38;;;;;;;21.03;81.86;100121.09;5029702;28;20078;-76
2022/09/01 05:06:21;;;;;;;16.40;12.85;;;;;;;21.07;81.90;100115.78;5029367;28;20450;-76
2022/09/01 05:08:48;;;;;;;19.95;13.65;;;;;;;20.99;81.98;100092.25;5029768;28;20065;-73
2022/09/01 05:11:16;;;;;;;19.42;14.00;;;;;;;21.21;82.44;100119.97;5029670;28;20478;-75
2022/09/01 05:13:44;;;;;;;21.77;14.18;;;;;;;21.32;82.06;100120.72;5029649;28;20052;-75
2022/09/01 05:16:14;;;;;;;24.83;15.40;;;;;;;21.22;81.59;100101.63;5029453;28;20033;-71
2022/09/01 05:18:46;;;;;;;18.40;14.13;;;;;;;21.38;81.87;100127.66;5026893;28;20030;-73
2022/09/01 05:21:15;;;;;;;21.45;15.63;;;;;;;21.45;81.52;100134.56;5029853;28;20199;-73
2022/09/01 05:23:41;;;;;;;23.95;15.90;;;;;;;21.55;80.96;100130.06;5049174;28;20029;-70
2022/09/01 05:26:17;;;;;;;19.05;16.63;;;;;;;21.55;81.28;100127.44;5051414;28;20562;-74
2022/09/01 05:28:47;;;;;;;22.50;15.45;;;;;;;21.59;81.45;100116.03;5049379;28;20036;-78
2022/09/01 05:31:13;;;;;;;24.98;16.27;;;;;;;21.50;80.90;100086.31;5051203;28;20064;-75
2022/09/01 05:33:44;;;;;;;19.20;15.57;;;;;;;21.83;80.44;100121.81;5047591;28;20472;-73
2022/09/01 05:36:19;;;;;;;19.45;15.73;;;;;;;21.59;80.85;100093.25;5050665;28;20021;-75
2022/09/01 05:38:46;;;;;;;21.27;15.88;;;;;;;21.84;80.80;100115.66;5051249;28;20028;-79
2022/09/01 05:41:14;;;;;;;19.35;15.43;;;;;;;22.00;80.13;100119.78;5042294;28;20030;-72
2022/09/01 05:43:48;;;;;;;17.83;15.00;;;;;;;21.96;80.37;100107.59;5039649;28;20029;-74
2022/09/01 05:46:16;;;;;;;20.88;15.60;;;;;;;22.09;79.95;100114.41;5048370;28;20037;-75
2022/09/01 05:48:48;;;;;;;21.90;14.73;;;;;;;22.15;79.87;100113.41;5051577;28;20036;-74
2022/09/01 05:51:16;;;;;;;20.17;15.40;;;;;;;22.18;79.02;100113.38;5049286;28;20037;-72
2022/09/01 05:53:42;;;;;;;17.63;15.20;;;;;;;22.08;79.01;100075.84;5051327;28;20134;-74
2022/09/01 05:56:13;;;;;;;19.13;15.02;;;;;;;22.43;78.57;100116.47;5050936;28;20017;-74
2022/09/01 05:58:42;;;;;;;17.38;14.98;;;;;;;22.57;77.78;100115.38;5051262;28;20029;-72
2022/09/01 06:01:08;;;;;;;16.52;13.80;;;;;;;22.62;77.63;100121.41;5039331;28;20025;-73
2022/09/01 06:03:34;;;;;;;22.35;14.90;;;;;;;22.60;77.58;100117.91;5041176;28;20025;-74
2022/09/01 06:06:07;;;;;;;16.60;14.55;;;;;;;22.67;77.89;100110.78;5040191;28;20519;-72
2022/09/01 06:08:35;;;;;;;16.98;14.23;;;;;;;22.48;78.46;100111.13;5048960;28;20073;-75
2022/09/01 06:11:02;;;;;;;20.17;14.18;;;;;;;22.68;78.26;100129.19;5050680;28;20037;-72
2022/09/01 06:13:28;;;;;;;21.80;16.38;;;;;;;22.47;77.89;100085.72;5050805;28;20029;-72
2022/09/01 06:15:57;;;;;;;22.15;15.05;;;;;;;22.70;77.39;100106.31;5050477;28;20104;-72
2022/09/01 06:18:23;;;;;;;15.90;13.50;;;;;;;22.93;76.78;100128.72;5031321;28;20060;-74
2022/09/01 06:20:48;;;;;;;18.88;14.35;;;;;;;23.01;77.07;100125.94;5050443;28;20064;-75
2022/09/01 06:23:16;;;;;;;25.30;18.20;;;;;;;23.01;76.52;100129.41;5050262;28;20078;-74
2022/09/01 06:25:45;;;;;;;19.95;14.27;;;;;;;23.14;76.54;100134.44;5050721;28;20502;-74
2022/09/01 06:28:15;;;;;;;;;;;;;;;23.29;75.02;100138.56;5051146;28;20107;-75
2022/09/01 06:30:41;;;;;;;18.73;13.20;;;;;;;23.22;73.64;100098.31;5050127;28;19986;-73
2022/09/01 06:33:08;;;;;;;18.48;13.68;;;;;;;23.56;73.59;100132.72;5050137;28;20498;-74
2022/09/01 06:35:34;;;;;;;18.58;12.75;;;;;;;23.47;74.38;100139.94;5049941;28;20024;-74
2022/09/01 06:38:00;;;;;;;14.13;12.02;;;;;;;23.67;73.46;100127.19;5050581;28;20108;-74
2022/09/01 06:40:26;;;;;;;19.10;11.32;;;;;;;23.79;71.88;100130.44;5050353;28;20104;-73
2022/09/01 06:42:52;;;;;;;15.02;10.68;;;;;;;23.88;71.00;100133.72;5050478;28;20032;-75
2022/09/01 06:45:21;;;;;;;14.77;9.75;;;;;;;24.13;69.45;100137.59;5050068;28;20489;-76
2022/09/01 06:47:49;;;;;;;16.08;10.20;;;;;;;24.00;70.28;100124.69;5049311;28;20041;-76
2022/09/01 06:50:18;;;;;;;15.35;10.60;;;;;;;23.98;70.06;100131.75;5049480;28;20033;-74
2022/09/01 06:52:45;;;;;;;11.75;9.68;;;;;;;24.02;73.49;100133.41;5050045;28;20036;-72
2022/09/01 06:55:13;;;;;;;15.95;10.35;;;;;;;24.09;70.61;100128.88;5050039;28;20036;-72
2022/09/01 06:57:40;;;;;;;18.67;10.20;;;;;;;24.12;70.15;100143.75;5047541;28;20111;-75
2022/09/01 07:00:19;;;;;;;13.38;9.50;;;;;;;24.16;68.01;100137.50;5050144;28;20018;-76
2022/09/01 07:02:53;;;;;;;15.32;10.38;;;;;;;24.25;70.49;100137.28;5045323;28;20040;-72
2022/09/01 07:05:20;;;;;;;15.02;10.13;;;;;;;24.32;68.26;100135.34;5047669;28;20025;-72
2022/09/01 07:07:50;;;;;;;16.00;10.30;;;;;;;24.55;67.42;100129.47;5046866;28;20045;-74
2022/09/01 07:10:21;;;;;;;14.85;10.07;;;;;;;24.71;66.92;100128.19;5048680;28;20082;-73
2022/09/01 07:12:48;;;;;;;14.30;10.27;;;;;;;24.83;65.84;100131.41;5048752;28;20402;-72
2022/09/01 07:15:14;;;;;;;15.80;10.48;;;;;;;24.84;67.35;100138.41;5049545;28;20021;-76
2022/09/01 07:17:41;;;;;;;14.98;10.20;;;;;;;24.84;65.17;100109.38;5049847;28;20104;-76
2022/09/01 07:20:09;;;;;;;11.43;9.63;;;;;;;25.08;63.80;100105.16;5049663;28;20025;-73
2022/09/01 07:22:34;;;;;;;11.18;8.98;;;;;;;25.41;64.27;100133.28;5049664;28;20544;-74
2022/09/01 07:25:00;;;;;;;14.23;9.70;;;;;;;25.40;62.30;100128.94;5049706;28;20025;-72
2022/09/01 07:27:26;;;;;;;14.13;9.10;;;;;;;25.25;62.87;100136.38;5049622;28;20056;-75
2022/09/01 07:29:55;;;;;;;13.60;9.80;;;;;;;24.98;63.65;100103.69;5050353;28;20048;-74
2022/09/01 07:32:22;;;;;;;13.93;9.20;;;;;;;25.03;64.01;100102.66;5053495;28;20036;-75
2022/09/01 07:34:47;;;;;;;15.32;8.43;;;;;;;24.85;64.34;100088.19;5053961;28;20036;-76
2022/09/01 07:37:13;;;;;;;12.60;8.32;;;;;;;25.16;64.71;100121.66;5053892;28;20017;-76
2022/09/01 07:39:44;;;;;;;13.35;8.57;;;;;;;25.17;62.65;100101.38;5053678;28;20028;-74
2022/09/01 07:42:10;;;;;;;15.35;8.25;;;;;;;25.43;60.26;100111.19;5053280;28;20016;-75
2022/09/01 07:44:37;;;;;;;14.98;8.13;;;;;;;25.75;60.53;100122.56;5052917;28;20111;-75
2022/09/01 07:47:08;;;;;;;10.50;6.90;;;;;;;25.85;57.82;100123.13;5051119;28;20020;-73
2022/09/01 07:49:36;;;;;;;14.43;7.70;;;;;;;25.92;58.43;100129.06;5053561;28;20082;-74
2022/09/01 07:52:04;;;;;;;12.13;7.05;;;;;;;25.91;57.95;100116.78;5053282;28;20021;-71
2022/09/01 07:54:30;;;;;;;10.68;6.75;;;;;;;26.15;57.28;100125.72;5054853;28;20442;-74
2022/09/01 07:56:55;;;;;;;11.07;7.68;;;;;;;26.37;56.56;100123.22;5017203;28;20101;-71
2022/09/01 07:59:22;;;;;;;12.40;6.85;;;;;;;26.59;56.00;100118.06;5053673;28;20174;-73
2022/09/01 08:01:48;;;;;;;15.57;7.97;;;;;;;26.76;55.45;100122.75;5053880;28;20120;-72
2022/09/01 08:04:14;;;;;;;15.13;7.88;;;;;;;26.88;55.08;100121.47;5053366;28;20467;-75
2022/09/01 08:06:39;;;;;;;12.18;7.05;;;;;;;26.90;53.95;100116.94;5053239;28;20021;-75
2022/09/01 08:09:09;;;;;;;11.70;6.65;;;;;;;26.86;53.09;100086.22;5052843;28;20069;-72
2022/09/01 08:11:35;;;;;;;11.00;6.80;;;;;;;27.16;53.14;100112.47;5050092;28;20516;-69
2022/09/01 08:14:01;;;;;;;14.95;7.30;;;;;;;27.37;51.93;100112.59;5053496;28;20020;-71
2022/09/01 08:16:28;;;;;;;11.93;6.72;;;;;;;27.44;52.21;100111.44;5034356;28;20781;-70
2022/09/01 08:18:53;;;;;;;14.93;6.80;;;;;;;27.40;50.99;100097.47;5053437;28;20036;-74
2022/09/01 08:21:22;;;;;;;14.13;6.85;;;;;;;27.41;50.74;100095.66;5053015;28;20029;-73
2022/09/01 08:23:48;;;;;;;12.40;7.05;;;;;;;27.48;51.24;100104.22;5053050;28;20514;-73
2022/09/01 08:26:15;;;;;;;13.57;7.00;;;;;;;27.64;50.92;100091.22;5051589;28;20029;-77
2022/09/01 08:28:41;;;;;;;16.45;7.45;;;;;;;27.47;50.92;100081.31;5053127;28;20036;-70
2022/09/01 08:31:11;;;;;;;10.30;7.03;;;;;;;27.37;51.92;100094.03;5053146;28;20033;-69
2022/09/01 08:33:41;;;;;;;17.55;7.85;;;;;;;27.60;50.73;100088.72;5053230;28;20021;-69
2022/09/01 08:36:09;;;;;;;14.68;6.85;;;;;;;27.68;50.51;100092.88;5053327;28;20025;-71
2022/09/01 08:38:35;;;;;;;14.20;7.03;;;;;;;27.86;50.06;100097.38;5053231;28;20036;-73
2022/09/01 08:41:02;;;;;;;13.30;6.43;;;;;;;27.98;49.55;100095.19;5052786;28;20040;-73
2022/09/01 08:43:49;;;;;;;11.15;6.95;;;;;;;27.76;50.16;100088.09;5052264;28;20021;-70
2022/09/01 08:46:20;;;;;;;12.80;7.55;;;;;;;27.82;49.57;100065.78;5053221;28;20432;-69
2022/09/01 08:48:50;;;;;;;17.20;6.75;;;;;;;28.04;48.59;100071.06;5052900;28;20029;-71
2022/09/01 08:51:19;;;;;;;13.07;6.95;;;;;;;28.25;47.78;100087.84;5052260;28;20805;-73
2022/09/01 08:54:22;;;;;;;14.80;6.53;;;;;;;28.19;48.59;100074.88;5046240;28;20419;-73
2022/09/01 08:56:53;;;;;;;13.40;7.03;;;;;;;28.37;48.13;100051.97;5032859;28;20443;-76
2022/09/01 08:59:19;;;;;;;12.73;6.25;;;;;;;28.67;47.14;100075.44;5032440;28;20037;-72
2022/09/01 09:02:03;;;;;;;14.52;6.65;;;;;;;28.65;47.22;100071.97;5032499;28;20029;-73
2022/09/01 09:04:38;;;;;;;10.68;6.15;;;;;;;28.39;46.58;100048.31;5040895;28;20525;-68
2022/09/01 09:07:41;;;;;;;12.48;6.20;;;;;;;28.65;46.47;100075.50;5052376;28;20084;-73
2022/09/01 09:10:25;;;;;;;11.50;6.97;;;;;;;28.63;47.80;100050.78;5010242;28;20169;-72
2022/09/01 09:12:59;;;;;;;10.60;5.82;;;;;;;28.79;46.38;100037.72;5010120;28;20037;-69
2022/09/01 09:15:43;;;;;;;12.85;6.45;;;;;;;29.03;44.75;100064.09;5010116;28;20069;-69
2022/09/01 09:18:22;;;;;;;16.90;6.00;;;;;;;28.99;45.82;100049.22;5010109;28;20030;-73
2022/09/01 09:20:48;;;;;;;14.18;5.80;;;;;;;28.78;46.71;100045.75;4993547;28;20037;-72
2022/09/01 09:23:26;;;;;;;15.50;6.25;;;;;;;28.98;46.38;100036.88;5010105;28;20540;-71
2022/09/01 09:25:52;;;;;;;12.48;5.63;;;;;;;29.24;46.40;100032.13;5009975;28;20222;-69
2022/09/01 09:28:17;;;;;;;14.13;6.20;;;;;;;29.34;45.77;100041.41;5009935;28;20025;-73
2022/09/01 09:30:43;;;;;;;16.33;6.40;;;;;;;29.52;44.99;100027.22;5009807;28;20160;-72
2022/09/01 09:33:28;;;;;;;10.02;5.93;;;;;;;29.58;43.91;99998.59;5009840;28;20046;-71
2022/09/01 09:35:56;;;;;;;10.25;5.72;;;;;;;29.73;43.54;100034.19;5009810;28;20605;-72
2022/09/01 09:38:31;;;;;;;14.77;5.70;;;;;;;29.68;43.71;100015.81;5009881;28;20084;-72
2022/09/01 09:41:01;;;;;;;16.52;6.07;;;;;;;29.73;44.27;100003.13;5009559;28;20046;-69
2022/09/01 09:43:30;;;;;;;15.10;6.25;;;;;;;30.19;45.14;100026.56;5009964;28;20087;-74
2022/09/01 09:46:23;;;;;;;11.25;5.45;;;;;;;30.08;42.89;100015.59;5005996;28;20127;-69
2022/09/01 09:49:05;;;;;;;11.43;5.80;;;;;;;30.11;42.84;100021.63;5051799;28;20017;-69
2022/09/01 09:51:31;;;;;;;15.50;5.78;;;;;;;30.23;41.94;100000.63;5051381;28;20091;-70
2022/09/01 09:54:33;;;;;;;13.65;5.68;;;;;;;30.36;41.40;100009.69;5051791;28;20029;-70
2022/09/01 09:57:07;;;;;;;15.15;6.30;;;;;;;30.35;42.15;100005.31;4987454;28;20409;-74
2022/09/01 09:59:47;;;;;;;12.93;5.63;;;;;;;30.27;42.54;100013.72;4989675;28;20062;-73
2022/09/01 10:02:21;;;;;;;;;;;;;;;30.50;44.06;100011.66;4990130;28;20031;-73
2022/09/01 10:04:46;;;;;;;12.07;5.55;;;;;;;30.74;41.99;99995.28;4989561;28;19910;-75
2022/09/01 10:07:41;;;;;;;17.25;5.90;;;;;;;30.73;40.79;99998.88;4989259;28;20035;-72
2022/09/01 10:10:23;;;;;;;12.48;5.43;;;;;;;30.92;40.96;99993.41;4950419;28;20047;-71
2022/09/01 10:12:52;;;;;;;10.65;5.80;;;;;;;30.50;41.06;99967.22;4950629;28;20054;-73
2022/09/01 10:15:21;;;;;;;18.23;6.13;;;;;;;30.82;41.47;99999.25;4950741;29;20076;-72
2022/09/01 10:17:50;;;;;;;13.98;5.32;;;;;;;31.05;40.68;99986.41;4950127;29;20054;-72
2022/09/01 10:20:24;;;;;;;8.43;4.78;;;;;;;31.26;39.72;99980.88;4950446;29;20042;-70
2022/09/01 10:22:50;;;;;;;12.02;5.80;;;;;;;31.29;43.36;99980.66;4950533;29;20078;-69
2022/09/01 10:25:32;;;;;;;13.23;5.30;;;;;;;31.35;40.10;99984.81;4950264;29;20043;-71
2022/09/01 10:28:11;;;;;;;15.48;5.80;;;;;;;31.30;39.30;99977.06;4947544;29;20043;-70
2022/09/01 10:30:42;;;;;;;12.80;6.07;;;;;;;31.30;41.99;99977.94;4963883;28;20572;-71
2022/09/01 10:33:08;;;;;;;12.25;5.50;;;;;;;31.52;39.52;99967.81;4988584;28;20531;-73
2022/09/01 10:35:39;;;;;;;10.45;5.45;;;;;;;31.43;39.04;99969.22;4988676;28;20034;-72
2022/09/01 10:38:13;;;;;;;15.10;5.80;;;;;;;31.48;38.55;99947.59;4986809;28;20054;-73
2022/09/01 10:40:47;;;;;;;12.73;5.10;;;;;;;31.62;37.35;99974.34;4988836;28;20038;-69
2022/09/01 10:43:45;;;;;;;12.05;4.97;;;;;;;31.63;37.71;99968.06;4988687;28;20034;-73
2022/09/01 10:46:36;;;;;;;15.27;4.75;;;;;;;31.61;38.59;99960.09;5009616;28;20120;-70
2022/09/01 10:49:17;;;;;;;12.35;5.47;;;;;;;32.07;36.67;99959.19;5044734;28;20028;-71
2022/09/01 10:51:44;;;;;;;12.38;5.22;;;;;;;32.28;35.44;99955.31;5038228;28;20036;-73
2022/09/01 10:54:38;;;;;;;12.93;4.85;;;;;;;32.63;35.19;99953.09;5040725;28;20022;-69
2022/09/01 10:57:22;;;;;;;12.15;5.03;;;;;;;32.80;35.38;99946.72;5047848;28;20025;-73
2022/09/01 10:59:48;;;;;;;11.88;5.20;;;;;;;32.83;34.39;99940.31;5048377;28;20437;-72
2022/09/01 11:02:17;;;;;;;12.25;4.43;;;;;;;33.04;34.12;99949.59;5048631;28;20082;-73
2022/09/01 11:04:46;;;;;;;11.85;4.60;;;;;;;33.27;31.99;99952.56;5049621;28;20090;-70
2022/09/01 11:07:17;;;;;;;12.98;5.10;;;;;;;33.45;33.34;99955.00;5049544;28;20809;-73
2022/09/01 11:10:11;;;;;;;12.55;4.80;;;;;;;33.60;33.70;99953.97;5050040;28;20186;-72
2022/09/01 11:12:45;;;;;;;10.85;5.15;;;;;;;33.50;33.27;99931.47;5049051;28;20025;-73
2022/09/01 11:15:14;;;;;;;9.50;4.65;;;;;;;33.62;31.96;99945.81;5048138;28;20025;-75
2022/09/01 11:17:51;;;;;;;9.93;4.43;;;;;;;33.47;33.64;99935.22;5050239;28;20099;-74
2022/09/01 11:20:26;;;;;;;14.57;5.32;;;;;;;33.61;34.60;99936.06;5048215;28;20275;-74
2022/09/01 11:23:18;;;;;;;15.32;5.10;;;;;;;33.69;31.61;99936.41;5041040;28;20037;-74
2022/09/01 11:26:02;;;;;;;17.60;4.85;;;;;;;33.80;35.54;99939.22;5049161;28;20053;-74
2022/09/01 11:28:30;;;;;;;10.43;4.50;;;;;;;33.71;32.05;99930.00;5046713;28;20049;-74
2022/09/01 11:31:07;;;;;;;11.60;4.90;;;;;;;33.55;31.32;99927.50;5047245;28;20053;-74
2022/09/01 11:33:41;;;;;;;14.48;4.70;;;;;;;33.80;30.41;99923.16;5048900;28;20029;-74